aviador You're here:

KPHL Decoded Metar

PHILADELPHIA in PA, USA
Report Time2017-09-20 19:54:00
UTC Time2017-09-20 20:12:14
Flight Rules vfr VFR
Wind350° at 11 kt
W.Decomp.*RWY 35: 10.8 kt HW 1.9 kt RCW
RWY 08: 1.9 kt HW 10.8 kt LCW
RWY 27: 11.0 kt RCW
W.Rank350° ranks 17
Current wind is above 350° avg. (8.3)
Visibility9999 m
Phenomena:N/A
Clouds:Few 048 Hf
Scattered 250 Hf
Expected CloudBase > 5,200 ft AGL from Temp-Dew spread
CeilingNone
Temp30°C (ISA +15)
Dew Point17°C (46% RH)
Heat Index30.5°C
AAT28.5°C
QNH1012 hPa
Density Alt2,083 ft
Elevation59 ft
Report Wrong Elevation
Raw Report
KPHL 201954Z 35011KT 10SM FEW048 SCT250 30/17 A2987 RMK AO2 PK WND
35027/1944 SLP115 T03000167 $=

Extra information for KPHL:More info

Metar Taf Metar & Taf Last 4 Metars F.Rules Stats Wind Profile Meteogram Temp Stats Airport Information Weather charts Add Link Nearby VenuesMetar ALERT Operation Metar Decoded Social comments

AIRNAV info for KPHL